sensor_id;sensor_type;location;lat;lon;timestamp;pressure;altitude;pressure_sealevel;temperature;humidity
61035;BME280;46916;40.564;-7.958;2024-01-06T00:01:24;97719.38;;;7.40;95.39
61035;BME280;46916;40.564;-7.958;2024-01-06T00:03:24;97714.22;;;7.38;95.41
61035;BME280;46916;40.564;-7.958;2024-01-06T00:05:25;97716.84;;;7.38;95.43
61035;BME280;46916;40.564;-7.958;2024-01-06T00:07:26;97711.94;;;7.34;95.22
61035;BME280;46916;40.564;-7.958;2024-01-06T00:09:27;97716.94;;;7.37;95.55
61035;BME280;46916;40.564;-7.958;2024-01-06T00:11:28;97727.56;;;7.34;95.50
61035;BME280;46916;40.564;-7.958;2024-01-06T00:13:29;97710.69;;;7.27;95.64
61035;BME280;46916;40.564;-7.958;2024-01-06T00:15:30;97710.59;;;7.28;95.88
61035;BME280;46916;40.564;-7.958;2024-01-06T00:17:31;97702.78;;;7.28;95.81
61035;BME280;46916;40.564;-7.958;2024-01-06T00:19:32;97700.06;;;7.30;95.80
61035;BME280;46916;40.564;-7.958;2024-01-06T00:21:32;97714.53;;;7.34;95.78
61035;BME280;46916;40.564;-7.958;2024-01-06T00:23:33;97707.56;;;7.34;95.92
61035;BME280;46916;40.564;-7.958;2024-01-06T00:25:34;97715.28;;;7.36;96.05
61035;BME280;46916;40.564;-7.958;2024-01-06T00:27:35;97716.31;;;7.33;96.16
61035;BME280;46916;40.564;-7.958;2024-01-06T00:29:35;97715.50;;;7.33;96.23
61035;BME280;46916;40.564;-7.958;2024-01-06T00:31:36;97712.88;;;7.33;96.36
61035;BME280;46916;40.564;-7.958;2024-01-06T00:33:37;97711.94;;;7.34;95.92
61035;BME280;46916;40.564;-7.958;2024-01-06T00:35:37;97711.22;;;7.32;95.93
61035;BME280;46916;40.564;-7.958;2024-01-06T00:37:38;97710.69;;;7.27;96.12
61035;BME280;46916;40.564;-7.958;2024-01-06T00:39:39;97718.53;;;7.27;96.00
61035;BME280;46916;40.564;-7.958;2024-01-06T00:41:40;97713.50;;;7.24;96.03
61035;BME280;46916;40.564;-7.958;2024-01-06T00:43:40;97707.78;;;7.18;96.21
61035;BME280;46916;40.564;-7.958;2024-01-06T00:45:41;97719.66;;;7.23;96.26
61035;BME280;46916;40.564;-7.958;2024-01-06T00:47:42;97711.22;;;7.19;96.14
61035;BME280;46916;40.564;-7.958;2024-01-06T00:49:42;97714.66;;;7.19;96.19
61035;BME280;46916;40.564;-7.958;2024-01-06T00:51:43;97718.28;;;7.17;96.52
61035;BME280;46916;40.564;-7.958;2024-01-06T00:53:44;97721.63;;;7.19;96.56
61035;BME280;46916;40.564;-7.958;2024-01-06T00:55:45;97717.34;;;7.18;96.62
61035;BME280;46916;40.564;-7.958;2024-01-06T00:57:45;97718.19;;;7.18;96.26
61035;BME280;46916;40.564;-7.958;2024-01-06T00:59:46;97718.19;;;7.18;96.13
61035;BME280;46916;40.564;-7.958;2024-01-06T01:01:47;97715.66;;;7.17;96.14
61035;BME280;46916;40.564;-7.958;2024-01-06T01:03:47;97720.88;;;7.17;95.99
61035;BME280;46916;40.564;-7.958;2024-01-06T01:05:49;97720.84;;;7.04;96.01
61035;BME280;46916;40.564;-7.958;2024-01-06T01:07:49;97724.06;;;6.95;96.86
61035;BME280;46916;40.564;-7.958;2024-01-06T01:09:50;97719.34;;;6.87;97.42
61035;BME280;46916;40.564;-7.958;2024-01-06T01:11:51;97721.84;;;6.89;97.34
61035;BME280;46916;40.564;-7.958;2024-01-06T01:13:51;97715.06;;;6.74;96.93
61035;BME280;46916;40.564;-7.958;2024-01-06T01:15:52;97719.69;;;6.68;97.71
61035;BME280;46916;40.564;-7.958;2024-01-06T01:17:53;97719.06;;;6.65;97.75
61035;BME280;46916;40.564;-7.958;2024-01-06T01:19:53;97708.22;;;6.58;98.16
61035;BME280;46916;40.564;-7.958;2024-01-06T01:21:54;97727.28;;;6.59;98.17
61035;BME280;46916;40.564;-7.958;2024-01-06T01:23:55;97715.69;;;6.50;98.08
61035;BME280;46916;40.564;-7.958;2024-01-06T01:25:56;97722.44;;;6.53;98.73
61035;BME280;46916;40.564;-7.958;2024-01-06T01:27:57;97725.97;;;6.52;99.00
61035;BME280;46916;40.564;-7.958;2024-01-06T01:29:58;97721.19;;;6.45;99.82
61035;BME280;46916;40.564;-7.958;2024-01-06T01:31:58;97714.84;;;6.50;99.94
61035;BME280;46916;40.564;-7.958;2024-01-06T01:33:59;97726.16;;;6.63;99.53
61035;BME280;46916;40.564;-7.958;2024-01-06T01:36:00;97730.22;;;6.67;99.23
61035;BME280;46916;40.564;-7.958;2024-01-06T01:38:00;97728.25;;;6.70;99.22
61035;BME280;46916;40.564;-7.958;2024-01-06T01:40:01;97728.59;;;6.79;99.50
61035;BME280;46916;40.564;-7.958;2024-01-06T01:42:02;97731.28;;;6.77;99.58
61035;BME280;46916;40.564;-7.958;2024-01-06T01:44:04;97731.09;;;6.80;99.25
61035;BME280;46916;40.564;-7.958;2024-01-06T01:46:05;97730.16;;;6.81;98.82
61035;BME280;46916;40.564;-7.958;2024-01-06T01:48:06;97718.81;;;6.82;98.36
61035;BME280;46916;40.564;-7.958;2024-01-06T01:50:07;97728.00;;;6.88;98.00
61035;BME280;46916;40.564;-7.958;2024-01-06T01:52:08;97731.25;;;6.91;97.87
61035;BME280;46916;40.564;-7.958;2024-01-06T01:54:09;97732.25;;;6.89;97.63
61035;BME280;46916;40.564;-7.958;2024-01-06T01:56:10;97737.13;;;6.81;97.35
61035;BME280;46916;40.564;-7.958;2024-01-06T01:58:12;97740.69;;;6.80;97.54
61035;BME280;46916;40.564;-7.958;2024-01-06T02:00:13;97733.06;;;6.77;97.70
61035;BME280;46916;40.564;-7.958;2024-01-06T02:02:15;97749.31;;;6.80;97.54
61035;BME280;46916;40.564;-7.958;2024-01-06T02:04:16;97742.81;;;6.73;97.30
61035;BME280;46916;40.564;-7.958;2024-01-06T02:06:16;97742.00;;;6.73;97.60
61035;BME280;46916;40.564;-7.958;2024-01-06T02:08:17;97745.44;;;6.73;97.83
61035;BME280;46916;40.564;-7.958;2024-01-06T02:10:18;97736.25;;;6.67;98.07
61035;BME280;46916;40.564;-7.958;2024-01-06T02:12:19;97746.47;;;6.70;98.08
61035;BME280;46916;40.564;-7.958;2024-01-06T02:14:19;97742.00;;;6.73;98.08
61035;BME280;46916;40.564;-7.958;2024-01-06T02:16:20;97745.44;;;6.73;98.10
61035;BME280;46916;40.564;-7.958;2024-01-06T02:18:21;97738.66;;;6.70;97.88
61035;BME280;46916;40.564;-7.958;2024-01-06T02:20:23;97747.19;;;6.73;98.01
61035;BME280;46916;40.564;-7.958;2024-01-06T02:22:25;97753.16;;;6.75;98.15
61035;BME280;46916;40.564;-7.958;2024-01-06T02:24:25;97742.75;;;6.75;98.01
61035;BME280;46916;40.564;-7.958;2024-01-06T02:26:26;97757.06;;;6.82;98.14
61035;BME280;46916;40.564;-7.958;2024-01-06T02:28:27;97761.31;;;6.83;97.85
61035;BME280;46916;40.564;-7.958;2024-01-06T02:30:28;97763.09;;;6.82;97.46
61035;BME280;46916;40.564;-7.958;2024-01-06T02:32:28;97759.84;;;6.79;97.54
61035;BME280;46916;40.564;-7.958;2024-01-06T02:34:29;97757.53;;;6.74;97.16
61035;BME280;46916;40.564;-7.958;2024-01-06T02:36:30;97766.00;;;6.78;97.50
61035;BME280;46916;40.564;-7.958;2024-01-06T02:38:30;97762.81;;;6.73;97.50
61035;BME280;46916;40.564;-7.958;2024-01-06T02:40:31;97762.19;;;6.69;97.55
61035;BME280;46916;40.564;-7.958;2024-01-06T02:42:33;97765.84;;;6.66;97.58
61035;BME280;46916;40.564;-7.958;2024-01-06T02:44:33;97765.38;;;6.60;97.05
61035;BME280;46916;40.564;-7.958;2024-01-06T02:46:34;97769.63;;;6.61;96.76
61035;BME280;46916;40.564;-7.958;2024-01-06T02:48:35;97776.72;;;6.59;97.13
61035;BME280;46916;40.564;-7.958;2024-01-06T02:50:35;97768.91;;;6.59;96.79
61035;BME280;46916;40.564;-7.958;2024-01-06T02:52:36;97767.13;;;6.59;96.76
61035;BME280;46916;40.564;-7.958;2024-01-06T02:54:37;97774.59;;;6.51;96.58
61035;BME280;46916;40.564;-7.958;2024-01-06T02:56:37;97771.06;;;6.52;96.78
61035;BME280;46916;40.564;-7.958;2024-01-06T02:58:39;97762.53;;;6.50;97.12
61035;BME280;46916;40.564;-7.958;2024-01-06T03:00:40;97766.06;;;6.49;97.20
61035;BME280;46916;40.564;-7.958;2024-01-06T03:02:40;97766.78;;;6.51;97.59
61035;BME280;46916;40.564;-7.958;2024-01-06T03:04:43;97769.19;;;6.54;97.72
61035;BME280;46916;40.564;-7.958;2024-01-06T03:06:43;97776.91;;;6.56;97.84
61035;BME280;46916;40.564;-7.958;2024-01-06T03:08:46;97770.22;;;6.52;97.49
61035;BME280;46916;40.564;-7.958;2024-01-06T03:10:47;97777.09;;;6.53;97.91
61035;BME280;46916;40.564;-7.958;2024-01-06T03:12:47;97777.00;;;6.54;98.36
61035;BME280;46916;40.564;-7.958;2024-01-06T03:14:48;97783.16;;;6.53;97.74
61035;BME280;46916;40.564;-7.958;2024-01-06T03:16:49;97768.31;;;6.41;96.92
61035;BME280;46916;40.564;-7.958;2024-01-06T03:18:49;97776.00;;;6.42;97.59
61035;BME280;46916;40.564;-7.958;2024-01-06T03:20:50;97778.91;;;6.38;96.92
61035;BME280;46916;40.564;-7.958;2024-01-06T03:22:51;97776.31;;;6.38;96.82
61035;BME280;46916;40.564;-7.958;2024-01-06T03:24:51;97774.34;;;6.27;97.01
61035;BME280;46916;40.564;-7.958;2024-01-06T03:26:52;97781.06;;;6.17;98.54
61035;BME280;46916;40.564;-7.958;2024-01-06T03:28:54;97775.84;;;6.17;98.23
61035;BME280;46916;40.564;-7.958;2024-01-06T03:30:55;97783.66;;;6.03;97.67
61035;BME280;46916;40.564;-7.958;2024-01-06T03:32:55;97773.91;;;5.92;97.97
61035;BME280;46916;40.564;-7.958;2024-01-06T03:34:56;97775.00;;;5.88;97.64
61035;BME280;46916;40.564;-7.958;2024-01-06T03:36:57;97784.53;;;5.87;98.54
61035;BME280;46916;40.564;-7.958;2024-01-06T03:38:57;97774.78;;;5.91;99.07
61035;BME280;46916;40.564;-7.958;2024-01-06T03:40:58;97772.59;;;5.99;98.74
61035;BME280;46916;40.564;-7.958;2024-01-06T03:42:59;97767.75;;;6.07;98.49
61035;BME280;46916;40.564;-7.958;2024-01-06T03:45:00;97761.09;;;6.17;97.94
61035;BME280;46916;40.564;-7.958;2024-01-06T03:47:01;97765.00;;;6.25;98.24
61035;BME280;46916;40.564;-7.958;2024-01-06T03:49:02;97767.19;;;6.31;98.07
61035;BME280;46916;40.564;-7.958;2024-01-06T03:51:03;97758.66;;;6.29;98.21
61035;BME280;46916;40.564;-7.958;2024-01-06T03:53:04;97762.53;;;6.36;97.84
61035;BME280;46916;40.564;-7.958;2024-01-06T03:55:05;97756.50;;;6.35;97.40
61035;BME280;46916;40.564;-7.958;2024-01-06T03:57:06;97768.13;;;6.30;97.49
61035;BME280;46916;40.564;-7.958;2024-01-06T03:59:07;97768.22;;;6.28;98.16
61035;BME280;46916;40.564;-7.958;2024-01-06T04:01:08;97765.06;;;6.23;97.67
61035;BME280;46916;40.564;-7.958;2024-01-06T04:03:08;97776.41;;;6.22;96.39
61035;BME280;46916;40.564;-7.958;2024-01-06T04:05:09;97775.50;;;6.09;96.33
61035;BME280;46916;40.564;-7.958;2024-01-06T04:07:10;97774.06;;;6.03;96.09
61035;BME280;46916;40.564;-7.958;2024-01-06T04:09:11;97776.13;;;5.98;96.34
61035;BME280;46916;40.564;-7.958;2024-01-06T04:11:12;97782.56;;;5.92;95.90
61035;BME280;46916;40.564;-7.958;2024-01-06T04:13:12;97768.31;;;5.84;96.72
61035;BME280;46916;40.564;-7.958;2024-01-06T04:15:13;97777.41;;;5.77;97.29
61035;BME280;46916;40.564;-7.958;2024-01-06T04:17:14;97768.38;;;5.68;97.00
61035;BME280;46916;40.564;-7.958;2024-01-06T04:19:15;97779.34;;;5.73;98.25
61035;BME280;46916;40.564;-7.958;2024-01-06T04:21:15;97766.78;;;5.65;98.09
61035;BME280;46916;40.564;-7.958;2024-01-06T04:23:16;97772.09;;;5.64;98.21
61035;BME280;46916;40.564;-7.958;2024-01-06T04:25:17;97776.34;;;5.65;98.46
61035;BME280;46916;40.564;-7.958;2024-01-06T04:27:17;97774.69;;;5.78;98.47
61035;BME280;46916;40.564;-7.958;2024-01-06T04:29:18;97774.13;;;5.73;98.77
61035;BME280;46916;40.564;-7.958;2024-01-06T04:31:19;97773.59;;;5.68;99.62
61035;BME280;46916;40.564;-7.958;2024-01-06T04:33:20;97784.97;;;5.65;99.95
61035;BME280;46916;40.564;-7.958;2024-01-06T04:35:20;97785.91;;;5.64;99.73
61035;BME280;46916;40.564;-7.958;2024-01-06T04:37:21;97784.88;;;5.67;100.00
61035;BME280;46916;40.564;-7.958;2024-01-06T04:39:22;97779.22;;;5.75;99.78
61035;BME280;46916;40.564;-7.958;2024-01-06T04:41:23;97786.50;;;5.84;99.57
61035;BME280;46916;40.564;-7.958;2024-01-06T04:43:23;97781.63;;;5.93;98.70
61035;BME280;46916;40.564;-7.958;2024-01-06T04:45:24;97787.00;;;6.05;98.85
61035;BME280;46916;40.564;-7.958;2024-01-06T04:47:25;97787.84;;;6.05;98.30
61035;BME280;46916;40.564;-7.958;2024-01-06T04:49:27;97795.19;;;6.13;98.22
61035;BME280;46916;40.564;-7.958;2024-01-06T04:51:27;97798.50;;;6.15;97.71
61035;BME280;46916;40.564;-7.958;2024-01-06T04:53:28;97790.53;;;6.18;97.71
61035;BME280;46916;40.564;-7.958;2024-01-06T04:55:29;97800.66;;;6.23;97.59
61035;BME280;46916;40.564;-7.958;2024-01-06T04:57:30;97794.06;;;6.17;97.41
61035;BME280;46916;40.564;-7.958;2024-01-06T04:59:30;97801.75;;;6.18;96.95
61035;BME280;46916;40.564;-7.958;2024-01-06T05:01:31;97797.56;;;6.16;96.79
61035;BME280;46916;40.564;-7.958;2024-01-06T05:03:32;97791.16;;;6.07;96.50
61035;BME280;46916;40.564;-7.958;2024-01-06T05:05:33;97807.59;;;6.08;95.99
61035;BME280;46916;40.564;-7.958;2024-01-06T05:07:33;97806.97;;;6.04;96.24
61035;BME280;46916;40.564;-7.958;2024-01-06T05:09:34;97808.81;;;6.02;95.72
61035;BME280;46916;40.564;-7.958;2024-01-06T05:11:35;97800.53;;;5.95;95.97
61035;BME280;46916;40.564;-7.958;2024-01-06T05:13:36;97804.31;;;5.90;95.53
61035;BME280;46916;40.564;-7.958;2024-01-06T05:15:36;97797.34;;;5.90;95.78
61035;BME280;46916;40.564;-7.958;2024-01-06T05:17:37;97803.50;;;5.89;95.55
61035;BME280;46916;40.564;-7.958;2024-01-06T05:19:38;97809.38;;;5.93;95.71
61035;BME280;46916;40.564;-7.958;2024-01-06T05:21:39;97807.84;;;5.89;95.82
61035;BME280;46916;40.564;-7.958;2024-01-06T05:23:40;97808.78;;;5.88;96.06
61035;BME280;46916;40.564;-7.958;2024-01-06T05:25:40;97808.22;;;5.83;96.29
61035;BME280;46916;40.564;-7.958;2024-01-06T05:27:41;97822.03;;;5.83;95.91
61035;BME280;46916;40.564;-7.958;2024-01-06T05:29:42;97807.53;;;5.79;96.56
61035;BME280;46916;40.564;-7.958;2024-01-06T05:31:43;97810.81;;;5.83;97.22
61035;BME280;46916;40.564;-7.958;2024-01-06T05:33:44;97821.78;;;5.88;97.17
61035;BME280;46916;40.564;-7.958;2024-01-06T05:35:44;97824.91;;;5.79;97.99
61035;BME280;46916;40.564;-7.958;2024-01-06T05:37:45;97828.22;;;5.66;98.57
61035;BME280;46916;40.564;-7.958;2024-01-06T05:39:46;97832.59;;;5.66;98.78
61035;BME280;46916;40.564;-7.958;2024-01-06T05:41:46;97826.66;;;5.64;98.81
61035;BME280;46916;40.564;-7.958;2024-01-06T05:43:47;97837.63;;;5.69;98.44
61035;BME280;46916;40.564;-7.958;2024-01-06T05:45:48;97830.09;;;5.64;98.21
61035;BME280;46916;40.564;-7.958;2024-01-06T05:47:49;97842.06;;;5.67;97.74
61035;BME280;46916;40.564;-7.958;2024-01-06T05:49:49;97835.47;;;5.61;96.60
61035;BME280;46916;40.564;-7.958;2024-01-06T05:51:50;97835.25;;;5.50;96.56
61035;BME280;46916;40.564;-7.958;2024-01-06T05:53:51;97851.75;;;5.49;96.11
61035;BME280;46916;40.564;-7.958;2024-01-06T05:55:51;97845.81;;;5.47;96.51
61035;BME280;46916;40.564;-7.958;2024-01-06T05:57:52;97847.16;;;5.38;94.47
61035;BME280;46916;40.564;-7.958;2024-01-06T05:59:53;97842.25;;;5.34;94.31
61035;BME280;46916;40.564;-7.958;2024-01-06T06:01:53;97842.44;;;5.31;94.44
61035;BME280;46916;40.564;-7.958;2024-01-06T06:03:54;97839.59;;;5.19;94.43
61035;BME280;46916;40.564;-7.958;2024-01-06T06:05:55;97840.75;;;5.14;94.64
61035;BME280;46916;40.564;-7.958;2024-01-06T06:07:56;97855.44;;;5.15;95.12
61035;BME280;46916;40.564;-7.958;2024-01-06T06:09:56;97866.00;;;5.12;95.55
61035;BME280;46916;40.564;-7.958;2024-01-06T06:11:57;97853.94;;;5.11;95.88
61035;BME280;46916;40.564;-7.958;2024-01-06T06:13:58;97847.31;;;5.05;96.03
61035;BME280;46916;40.564;-7.958;2024-01-06T06:15:59;97844.81;;;5.04;96.46
61035;BME280;46916;40.564;-7.958;2024-01-06T06:17:59;97846.00;;;4.98;97.24
61035;BME280;46916;40.564;-7.958;2024-01-06T06:20:01;97852.19;;;4.95;97.43
61035;BME280;46916;40.564;-7.958;2024-01-06T06:22:01;97852.69;;;4.86;98.63
61035;BME280;46916;40.564;-7.958;2024-01-06T06:24:02;97855.03;;;4.91;98.86
61035;BME280;46916;40.564;-7.958;2024-01-06T06:26:07;97854.69;;;4.97;99.34
61035;BME280;46916;40.564;-7.958;2024-01-06T06:28:08;97852.84;;;4.99;98.56
61035;BME280;46916;40.564;-7.958;2024-01-06T06:30:09;97866.25;;;5.07;98.03
61035;BME280;46916;40.564;-7.958;2024-01-06T06:32:10;97850.00;;;5.04;98.28
61035;BME280;46916;40.564;-7.958;2024-01-06T06:34:11;97859.56;;;5.03;98.36
61035;BME280;46916;40.564;-7.958;2024-01-06T06:36:11;97868.84;;;5.07;98.46
61035;BME280;46916;40.564;-7.958;2024-01-06T06:38:12;97867.75;;;5.11;98.83
61035;BME280;46916;40.564;-7.958;2024-01-06T06:40:13;97863.22;;;5.15;98.82
61035;BME280;46916;40.564;-7.958;2024-01-06T06:42:14;97862.13;;;5.19;98.97
61035;BME280;46916;40.564;-7.958;2024-01-06T06:44:14;97870.59;;;5.22;99.25
61035;BME280;46916;40.564;-7.958;2024-01-06T06:46:15;97860.69;;;5.13;99.05
61035;BME280;46916;40.564;-7.958;2024-01-06T06:48:16;97890.44;;;5.24;98.95
61035;BME280;46916;40.564;-7.958;2024-01-06T06:50:17;97892.28;;;5.21;99.23
61035;BME280;46916;40.564;-7.958;2024-01-06T06:52:18;97895.78;;;5.20;99.07
61035;BME280;46916;40.564;-7.958;2024-01-06T06:54:18;97894.13;;;5.19;98.61
61035;BME280;46916;40.564;-7.958;2024-01-06T06:56:19;97897.06;;;5.13;98.23
61035;BME280;46916;40.564;-7.958;2024-01-06T06:58:20;97887.94;;;5.06;98.67
61035;BME280;46916;40.564;-7.958;2024-01-06T07:00:21;97900.94;;;5.06;98.15
61035;BME280;46916;40.564;-7.958;2024-01-06T07:02:22;97891.03;;;4.97;98.29
61035;BME280;46916;40.564;-7.958;2024-01-06T07:04:23;97903.09;;;4.98;97.67
61035;BME280;46916;40.564;-7.958;2024-01-06T07:06:26;97893.88;;;4.92;97.82
61035;BME280;46916;40.564;-7.958;2024-01-06T07:08:27;97885.81;;;4.81;97.91
61035;BME280;46916;40.564;-7.958;2024-01-06T07:10:29;97897.91;;;4.82;98.65
61035;BME280;46916;40.564;-7.958;2024-01-06T07:12:29;97891.94;;;4.80;99.73
61035;BME280;46916;40.564;-7.958;2024-01-06T07:14:30;97900.31;;;4.85;98.88
61035;BME280;46916;40.564;-7.958;2024-01-06T07:16:31;97896.88;;;4.85;99.02
61035;BME280;46916;40.564;-7.958;2024-01-06T07:18:31;97915.56;;;4.91;98.53
61035;BME280;46916;40.564;-7.958;2024-01-06T07:20:32;97905.34;;;4.88;98.04
61035;BME280;46916;40.564;-7.958;2024-01-06T07:22:33;97920.09;;;4.88;98.09
61035;BME280;46916;40.564;-7.958;2024-01-06T07:24:37;97939.84;;;4.90;97.86
61035;BME280;46916;40.564;-7.958;2024-01-06T07:26:37;97927.13;;;4.86;97.69
61035;BME280;46916;40.564;-7.958;2024-01-06T07:28:38;97928.78;;;4.87;97.61
61035;BME280;46916;40.564;-7.958;2024-01-06T07:30:39;97934.06;;;4.85;97.42
61035;BME280;46916;40.564;-7.958;2024-01-06T07:32:40;97936.00;;;4.82;96.72
61035;BME280;46916;40.564;-7.958;2024-01-06T07:34:40;97940.75;;;4.74;97.14
61035;BME280;46916;40.564;-7.958;2024-01-06T07:36:41;97949.09;;;4.63;97.58
61035;BME280;46916;40.564;-7.958;2024-01-06T07:38:42;97954.00;;;4.52;98.84
61035;BME280;46916;40.564;-7.958;2024-01-06T07:40:43;97946.53;;;4.45;98.98
61035;BME280;46916;40.564;-7.958;2024-01-06T07:42:44;97950.72;;;4.48;98.81
61035;BME280;46916;40.564;-7.958;2024-01-06T07:44:45;97949.13;;;4.45;98.96
61035;BME280;46916;40.564;-7.958;2024-01-06T07:46:46;97948.22;;;4.46;98.14
61035;BME280;46916;40.564;-7.958;2024-01-06T07:48:47;97950.03;;;4.44;98.20
61035;BME280;46916;40.564;-7.958;2024-01-06T07:50:47;97954.16;;;4.48;98.33
61035;BME280;46916;40.564;-7.958;2024-01-06T07:52:48;97953.94;;;4.53;98.57
61035;BME280;46916;40.564;-7.958;2024-01-06T07:54:49;97949.72;;;4.51;98.48
61035;BME280;46916;40.564;-7.958;2024-01-06T07:56:49;97962.38;;;4.57;99.37
61035;BME280;46916;40.564;-7.958;2024-01-06T07:58:50;97948.41;;;4.59;99.87
61035;BME280;46916;40.564;-7.958;2024-01-06T08:00:51;97960.91;;;4.68;99.63
61035;BME280;46916;40.564;-7.958;2024-01-06T08:02:51;97962.59;;;4.69;100.00
61035;BME280;46916;40.564;-7.958;2024-01-06T08:04:52;97963.88;;;4.78;100.00
61035;BME280;46916;40.564;-7.958;2024-01-06T08:06:54;97970.63;;;4.81;100.00
61035;BME280;46916;40.564;-7.958;2024-01-06T08:08:55;97974.84;;;4.83;100.00
61035;BME280;46916;40.564;-7.958;2024-01-06T08:10:56;97972.09;;;4.86;99.72
61035;BME280;46916;40.564;-7.958;2024-01-06T08:12:57;97984.97;;;4.88;98.11
61035;BME280;46916;40.564;-7.958;2024-01-06T08:14:58;97990.31;;;4.85;96.75
61035;BME280;46916;40.564;-7.958;2024-01-06T08:16:58;97989.63;;;4.81;95.16
61035;BME280;46916;40.564;-7.958;2024-01-06T08:18:59;97993.41;;;4.76;94.47
61035;BME280;46916;40.564;-7.958;2024-01-06T08:21:00;97997.84;;;4.74;93.64
61035;BME280;46916;40.564;-7.958;2024-01-06T08:23:01;97989.09;;;4.59;93.54
61035;BME280;46916;40.564;-7.958;2024-01-06T08:25:02;98007.88;;;4.46;96.00
61035;BME280;46916;40.564;-7.958;2024-01-06T08:27:03;98003.53;;;4.30;97.85
61035;BME280;46916;40.564;-7.958;2024-01-06T08:29:04;97995.78;;;4.12;99.26
61035;BME280;46916;40.564;-7.958;2024-01-06T08:31:04;97989.06;;;4.08;99.88
61035;BME280;46916;40.564;-7.958;2024-01-06T08:33:05;97999.25;;;4.11;100.00
61035;BME280;46916;40.564;-7.958;2024-01-06T08:35:06;97996.06;;;4.06;100.00
61035;BME280;46916;40.564;-7.958;2024-01-06T08:37:07;98005.72;;;4.03;100.00
61035;BME280;46916;40.564;-7.958;2024-01-06T08:39:08;98008.28;;;4.04;100.00
61035;BME280;46916;40.564;-7.958;2024-01-06T08:41:09;98013.59;;;4.01;100.00
61035;BME280;46916;40.564;-7.958;2024-01-06T08:43:09;98015.63;;;4.12;100.00
61035;BME280;46916;40.564;-7.958;2024-01-06T08:45:10;98015.59;;;4.13;100.00
61035;BME280;46916;40.564;-7.958;2024-01-06T08:47:11;98005.34;;;4.10;100.00
61035;BME280;46916;40.564;-7.958;2024-01-06T08:49:12;98007.56;;;4.18;100.00
61035;BME280;46916;40.564;-7.958;2024-01-06T08:51:13;98021.91;;;4.25;100.00
61035;BME280;46916;40.564;-7.958;2024-01-06T08:53:13;98020.47;;;4.37;100.00
61035;BME280;46916;40.564;-7.958;2024-01-06T08:55:14;98022.50;;;4.47;100.00
61035;BME280;46916;40.564;-7.958;2024-01-06T08:57:16;98017.38;;;4.63;100.00
61035;BME280;46916;40.564;-7.958;2024-01-06T08:59:18;98019.63;;;4.87;100.00
61035;BME280;46916;40.564;-7.958;2024-01-06T09:01:19;98013.91;;;5.13;99.53
61035;BME280;46916;40.564;-7.958;2024-01-06T09:03:19;98017.19;;;5.49;99.30
61035;BME280;46916;40.564;-7.958;2024-01-06T09:05:26;98017.66;;;5.87;98.19
61035;BME280;46916;40.564;-7.958;2024-01-06T09:07:27;98005.47;;;6.19;96.90
61035;BME280;46916;40.564;-7.958;2024-01-06T09:09:27;98016.72;;;6.50;95.31
61035;BME280;46916;40.564;-7.958;2024-01-06T09:11:28;98015.25;;;6.74;94.15
61035;BME280;46916;40.564;-7.958;2024-01-06T09:13:29;98020.47;;;6.88;92.67
61035;BME280;46916;40.564;-7.958;2024-01-06T09:15:30;98021.84;;;7.08;91.45
61035;BME280;46916;40.564;-7.958;2024-01-06T09:17:30;98029.47;;;7.26;91.07
61035;BME280;46916;40.564;-7.958;2024-01-06T09:19:32;98034.38;;;7.44;89.83
61035;BME280;46916;40.564;-7.958;2024-01-06T09:21:32;98041.03;;;7.63;89.48
61035;BME280;46916;40.564;-7.958;2024-01-06T09:23:33;98032.44;;;7.75;88.99
61035;BME280;46916;40.564;-7.958;2024-01-06T09:25:34;98024.91;;;7.85;88.33
61035;BME280;46916;40.564;-7.958;2024-01-06T09:27:34;98030.53;;;7.91;87.67
61035;BME280;46916;40.564;-7.958;2024-01-06T09:29:35;98021.56;;;7.95;87.64
61035;BME280;46916;40.564;-7.958;2024-01-06T09:31:36;98024.44;;;8.05;87.42
61035;BME280;46916;40.564;-7.958;2024-01-06T09:33:36;98032.09;;;8.08;87.07
61035;BME280;46916;40.564;-7.958;2024-01-06T09:35:37;98040.75;;;8.09;86.31
61035;BME280;46916;40.564;-7.958;2024-01-06T09:37:38;98041.66;;;8.08;85.76
61035;BME280;46916;40.564;-7.958;2024-01-06T09:39:39;98047.72;;;8.08;85.08
61035;BME280;46916;40.564;-7.958;2024-01-06T09:41:40;98038.97;;;8.09;85.49
61035;BME280;46916;40.564;-7.958;2024-01-06T09:43:40;98054.84;;;8.19;85.17
61035;BME280;46916;40.564;-7.958;2024-01-06T09:45:41;98049.63;;;8.19;84.95
61035;BME280;46916;40.564;-7.958;2024-01-06T09:47:42;98048.50;;;8.23;84.62
61035;BME280;46916;40.564;-7.958;2024-01-06T09:49:49;98051.94;;;8.24;85.06
61035;BME280;46916;40.564;-7.958;2024-01-06T09:51:51;98055.72;;;8.32;85.66
61035;BME280;46916;40.564;-7.958;2024-01-06T09:53:58;98059.13;;;8.47;88.48
61035;BME280;46916;40.564;-7.958;2024-01-06T09:56:00;98071.06;;;8.64;89.22
61035;BME280;46916;40.564;-7.958;2024-01-06T09:58:01;98074.44;;;8.79;89.12
61035;BME280;46916;40.564;-7.958;2024-01-06T10:00:02;98076.13;;;8.92;87.98
61035;BME280;46916;40.564;-7.958;2024-01-06T10:02:16;98083.22;;;9.03;87.96
61035;BME280;46916;40.564;-7.958;2024-01-06T10:04:17;98080.19;;;9.09;88.42
61035;BME280;46916;40.564;-7.958;2024-01-06T10:06:18;98091.91;;;9.16;88.63
61035;BME280;46916;40.564;-7.958;2024-01-06T10:08:25;98095.97;;;9.21;88.34
61035;BME280;46916;40.564;-7.958;2024-01-06T10:10:27;98095.78;;;9.24;87.63
61035;BME280;46916;40.564;-7.958;2024-01-06T10:12:28;98093.69;;;9.29;87.61
61035;BME280;46916;40.564;-7.958;2024-01-06T10:14:29;98083.09;;;9.30;86.93
61035;BME280;46916;40.564;-7.958;2024-01-06T10:16:30;98085.31;;;9.36;86.51
61035;BME280;46916;40.564;-7.958;2024-01-06T10:18:31;98092.63;;;9.44;86.36
61035;BME280;46916;40.564;-7.958;2024-01-06T10:20:32;98098.56;;;9.46;86.30
61035;BME280;46916;40.564;-7.958;2024-01-06T10:22:35;98102.75;;;9.49;85.93
61035;BME280;46916;40.564;-7.958;2024-01-06T10:24:37;98098.16;;;9.52;85.29
61035;BME280;46916;40.564;-7.958;2024-01-06T10:26:39;98095.97;;;9.46;83.61
61035;BME280;46916;40.564;-7.958;2024-01-06T10:28:41;98101.63;;;9.40;84.07
61035;BME280;46916;40.564;-7.958;2024-01-06T10:30:42;98092.41;;;9.34;84.27
61035;BME280;46916;40.564;-7.958;2024-01-06T10:32:43;98103.91;;;9.45;84.14
61035;BME280;46916;40.564;-7.958;2024-01-06T10:34:44;98095.53;;;9.52;84.32
61035;BME280;46916;40.564;-7.958;2024-01-06T10:36:46;98086.75;;;9.53;84.65
61035;BME280;46916;40.564;-7.958;2024-01-06T10:38:47;98099.47;;;9.71;84.45
61035;BME280;46916;40.564;-7.958;2024-01-06T10:41:02;98093.63;;;9.80;84.92